Ride Results

Linville (08-05-2005)
Ride distance: 80.0 km

Outcomes - Linville (08-05-2005)
Division No. of Entries Retired / DNE Completed Withdrawn Ineligible V/O Percentage Completed
HW 23 - 11 6 - 6 47.83%
MW 42 - 30 3 - 9 71.43%
LW 15 - 12 1 - 2 80.00%
JN 6 - 2 1 - 3 33.33%
Totals 86 - 55 11 - 20 63.95%
Results - Linville (08-05-2005)
No. Rider Horse Place Time Leg Speeds Total
Km/Hr
H/R bpm
Heavyweight
18 Elizabeth Paton Freelance Gaytu Boysey 1 7:30:00 12.1, 9.4 10.67 27, 41, 48 (Avg:44)
53 Alwyn Torenbeek Mary-Anne 2 8:44:00 9.8, 8.5 9.16 30, 42, 41 (Avg:41)
68 Colleen Shaw Azerash Shahreza 3 8:50:00 10.8, 7.7 9.06 36, 42, 49 (Avg:45)
8 Garry Lewis Shian 4 8:53:00 9.7, 8.3 9.01 43, 42, 46 (Avg:44)
36 Peter Casey Fred 5 9:05:00 10.0, 7.8 8.81 34, 40, 52 (Avg:46)
73 Niels Lochtenberg Matta Mia Ademi 5 9:05:00 9.5, 8.1 8.81 39, 44, 48 (Avg:46)
24 Craig Ellison Rowallan Dark Lad 7 9:11:00 10.6, 7.3 8.71 30, 44, 46 (Avg:45)
60 Anthony Caslin Timeless 8 9:17:00 9.5, 7.8 8.62 34, 42, 57 (Avg:49)
9 Bruce Ericksen Hillbrae Kazlad 9 9:23:00 8.8, 8.1 8.53 50, 40, 55 (Avg:47)
77 Ivan Sampson Hillbrae Bam's Boy 9 9:23:00 8.8, 8.1 8.53 38, 42, 47 (Avg:44)
76 Roger Warner Hillbrae Gem 9 9:23:00 8.8, 8.1 8.53 38, 38, 46 (Avg:42)
4 Phillipa McConnell Rei's Jazz Heart Rate L2 0:00:00 10.2, 7.6 - 41, 52, 65 (Avg:58)
72 Bruce Moore Arabcrest Regal Spirit Heart Rate L2 0:00:00 10.8, 10.1 - 40, 52, 70 (Avg:61)
34 Steve Barlow Dunwingeri Maashhar Lame L1 0:00:00 11.5 - 35, 45 (Avg:45)
49 Maurice Crombie Rombando Bundi Lame L1 0:00:00 10.9 - 34, 48 (Avg:48)
28 Robert Fenech Kerala Mystique Withdrawn L1 0:00:00 - - 37, 48 (Avg:48)
61 Kim Goss Tex Withdrawn L1 0:00:00 - - 36, 41 (Avg:41)
25 Kristan Kershaw Bullarto Casals Lame L1 0:00:00 9.4 - 38, 54 (Avg:54)
89 Len Law Ming-Gah Teranus Withdrawn L1 0:00:00 - - 40, 44 (Avg:44)
62 Tony Matthews Dunbar Lexus Withdrawn L1 0:00:00 - - 37, 40 (Avg:40)
52 Jan McPherson Rose Robin Lame L1 0:00:00 6.7 - 35, 46 (Avg:46)
31 Russell Rainbird Poroti Levi Withdrawn L1 0:00:00 - - 26, 42 (Avg:42)
30 David Anderson (DAD) Hillbrae Kaszan Withdrawn P/R 0:00:00 - - -
Middleweight
20 David Marshall Brasch 1 6:48:00 12.1, 11.3 11.76 27, 38, 47 (Avg:42)
38 Kerrie McAuliffe Gurangada Sundance 2 6:54:00 12.6, 10.6 11.59 33, 36, 41 (Avg:38)
39 Jan Tyrrell Cameo Sleeping Beauty 2 6:54:00 12.6, 10.6 11.59 34, 43, 48 (Avg:45)
54 Neil Hoy Karim's Pride 4 7:33:00 10.6, 10.5 10.60 36, 39, 47 (Avg:43)
33 Anne Barlow Tyto Ivan 5 7:36:00 11.5, 9.6 10.53 34, 40, 47 (Avg:43)
59 Wayne McKinnon Dunbar Aramis 6 7:39:00 11.2, 9.7 10.46 37, 47, 48 (Avg:47)
63 Debbie Forsdike Travelon 7 7:46:00 10.5, 10.0 10.30 34, 42, 48 (Avg:45)
29 Fiona Fenech Kilkivan Msalute 8 8:13:00 10.8, 8.8 9.74 56, 38, 55 (Avg:46)
13 Albie Knight Sergai 9 8:14:00 10.6, 8.9 9.72 35, 45, 47 (Avg:46)
2 Tanya Trevarthen Red Zane 9 8:14:00 10.8, 8.8 9.72 37, 42, 46 (Avg:44)
71 Raewyn Carter Mt Eerwah Siridion 11 8:28:00 10.6, 8.4 9.45 38, 42, 43 (Avg:42)
70 Paul Rogerson My Sweet Lord 11 8:28:00 10.6, 8.4 9.45 44, 42, 43 (Avg:42)
23 Ben Caslick Bullio Apparition 13 8:31:00 10.8, 8.2 9.39 39, 43, 49 (Avg:46)
82 Wencke Hansen Pharslee Amani 13 8:31:00 10.9, 8.2 9.39 31, 40, 42 (Avg:41)
45 Jackie Swan Longrun Domino 13 8:31:00 10.5, 8.4 9.39 40, 42, 57 (Avg:49)
88 Sandra Birch Hillbrae Riley 16 8:32:00 10.6, 8.3 9.38 35, 40, 49 (Avg:44)
87 Peter Birch Hillbrae May 16 8:32:00 10.6, 8.3 9.38 32, 44, 44 (Avg:44)
19 Sharon Russell Rafyke 16 8:32:00 10.6, 8.3 9.38 37, 44, 52 (Avg:48)
5 Jaime Mansbridge Shannonwood Bree 19 8:50:00 11.5, 7.4 9.06 36, 41, 59 (Avg:50)
86 Marion Lengronne Murland Park Mannequin 20 8:53:00 9.9, 8.2 9.01 38, 38, 57 (Avg:47)
79 Jill Colwell Algalahn 21 8:57:00 10.3, 7.8 8.94 36, 40, 48 (Avg:44)
80 Jaimee Foulsham Bramall Jazzmin 21 8:57:00 10.3, 7.8 8.94 31, 41, 47 (Avg:44)
1 Karen Weeden Fazenda Shohan 23 9:03:00 8.8, 8.8 8.84 35, 40, 45 (Avg:42)
65 Mark Harris Latif Jemima 24 9:05:00 9.8, 7.9 8.81 38, 36, 45 (Avg:40)
46 Yukio Yanadae Shah-Vale Shamal 24 9:05:00 8.8, 8.7 8.81 37, 46, 50 (Avg:48)
84 Donna Brooker Hirstglen Conquistador 26 9:09:00 8.9, 8.5 8.74 39, 47, 52 (Avg:49)
74 Viv Butler Sadaqa 27 9:19:00 8.9, 8.2 8.59 36, 47, 53 (Avg:50)
56 Leonora Flynn D'arcy 27 9:19:00 8.9, 8.2 8.59 30, 50, 58 (Avg:54)
6 Terri Guardala Rodborough Baashan 29 9:22:00 8.8, 8.2 8.54 32, 41, 55 (Avg:48)
12 Wendy Smith Midu Jacelle 30 9:36:00 9.5, 7.3 8.33 36, 44, 49 (Avg:46)
48 Jillian Crowley Crystalara Heart Rate L2 0:00:00 10.4, 7.6 - 34, 36, 62 (Avg:49)
41 Robyn Pembroke Thara's Dream Heart Rate L2 0:00:00 10.8, 6.7 - 36, 52, 67 (Avg:59)
64 Robin Young Ilanel Shanntann Lame L2 0:00:00 9.6, 13.4 - 38, 48, 53 (Avg:50)
11 Lynne Drinkwater Red Gum Sundance Heart Rate L1 0:00:00 11.8 - 33, 57 (Avg:57)
55 Kate Gadsby Cherox Kariim Withdrawn L1 0:00:00 - - 33, 48 (Avg:48)
37 Ruth Jones Leondon Silver Stardust Lame L1 0:00:00 12.6 - 35, 48 (Avg:48)
67 Julie Kemp Al Baraq Lame L1 0:00:00 10.8 - 38, 48 (Avg:48)
83 Annette Law Nikki Withdrawn L1 0:00:00 - - 34, 44 (Avg:44)
14 Barbara Macdonald Cameo Coquette Withdrawn L1 0:00:00 - - 32, 48 (Avg:48)
51 Lesley Nancarrow Zenith Park Chico Niveladora Lame L1 0:00:00 12.1 - 32, 40 (Avg:40)
15 Elsie Newsome Kalkadoon Vaquero Lame L1 0:00:00 10.1 - 37, 40 (Avg:40)
66 Peter Pike Anna Najaf Lame L1 0:00:00 12.2 - 28, 48 (Avg:48)
Lightweight
69 Jeanna Maher Red Gum Trinket 1 6:54:00 12.6, 10.6 11.59 36, 41, 46 (Avg:43)
57 Kylie Beard Careb Park Bently 2 7:30:00 12.1, 9.4 10.67 34, 49, 48 (Avg:48)
50 Bridgette Crombie Rombando Tendi 3 7:33:00 10.9, 10.2 10.60 33, 42, 44 (Avg:43)
21 Anne Jones Tongarra Red Cloud 4 7:36:00 11.5, 9.6 10.53 34, 38, 53 (Avg:45)
81 Clare Fleming Kitt 5 7:53:00 11.5, 9.0 10.15 34, 44, 47 (Avg:45)
3 Jocelyn Barnes Sahala Afrikhaan 6 8:14:00 10.8, 8.8 9.72 34, 53, 52 (Avg:52)
43 Chelsea Moore Mt Eerwah Silver Arafina 7 8:53:00 10.8, 7.7 9.01 26, 34, 49 (Avg:41)
42 Belinda Quirk Tee Dee 8 8:59:00 10.0, 7.9 8.91 39, 44, 50 (Avg:47)
90 Yuko Crease Prince Kaschial 9 9:00:00 9.4, 8.4 8.89 40, 46, 46 (Avg:46)
47 Leigh Ann Sample Taljarri Moonlight Pharoah 10 9:05:00 8.8, 8.7 8.81 40, 42, 47 (Avg:44)
85 Joanne Crittenden Hirstglen Chynna 11 9:09:00 8.9, 8.5 8.74 28, 42, 57 (Avg:49)
16 Bec Miller Aloha Zoom 12 9:11:00 10.1, 7.6 8.71 37, 48, 45 (Avg:46)
10 Bridget Macintyre Bella Heart Rate L2 0:00:00 10.2, 7.9 - 37, 42, 64 (Avg:53)
75 Bobbi Lochtenberg Sooty Bye Royal Heart Rate L1 0:00:00 9.5 - 33, 57 (Avg:57)
32 Jan Rainbird Kazkade Withdrawn L1 0:00:00 - - 45, 42 (Avg:42)
Junior
27 Terri Anderson Diamond Centrefold 1 8:59:00 10.1, 7.9 8.91 36, 50, 54 (Avg:52)
7 Matthaus Guardala Googabilla Lodge Aida 2 9:22:00 8.8, 8.2 8.54 35, 42, 45 (Avg:43)
78 Andrew Abbas Echo Park Highlander Lame L2 0:00:00 10.4, 7.6 - 36, 39, 49 (Avg:44)
35 Jasmine Shields Mithras Eric Lame L2 0:00:00 10.1, 7.6 - 29, 43, 47 (Avg:45)
26 Emilie Barton Cluwens Stir Heart Rate L1 0:00:00 9.4 - 44, 65 (Avg:65)
22 Tasha Jeremy Castlebar Sobia Withdrawn L1 0:00:00 - - 37, 36 (Avg:36)